createdAt,value
2022-10-28T00:02:17.922Z,8.50
2022-10-28T00:04:37.708Z,7.47
2022-10-28T00:06:57.269Z,8.13
2022-10-28T00:09:16.865Z,7.97
2022-10-28T00:11:36.335Z,7.80
2022-10-28T00:13:58.924Z,7.10
2022-10-28T00:16:21.218Z,7.65
2022-10-28T00:18:41.607Z,8.20
2022-10-28T00:21:04.131Z,8.13
2022-10-28T00:23:24.219Z,8.50
2022-10-28T00:25:43.744Z,9.10
2022-10-28T00:28:03.424Z,7.97
2022-10-28T00:30:23.046Z,10.15
2022-10-28T00:32:43.045Z,10.38
2022-10-28T00:35:02.871Z,11.77
2022-10-28T00:37:23.259Z,11.02
2022-10-28T00:39:43.143Z,9.68
2022-10-28T00:42:03.002Z,10.27
2022-10-28T00:45:07.840Z,10.80
2022-10-28T00:47:39.268Z,9.18
2022-10-28T00:50:33.133Z,9.48
2022-10-28T00:52:57.594Z,7.85
2022-10-28T00:55:18.600Z,7.10
2022-10-28T00:57:41.030Z,7.97
2022-10-28T01:00:03.508Z,8.23
2022-10-28T01:02:23.656Z,8.75
2022-10-28T01:04:43.856Z,8.50
2022-10-28T01:07:03.568Z,8.27
2022-10-28T01:09:23.054Z,7.18
2022-10-28T01:11:55.993Z,8.23
2022-10-28T01:14:21.178Z,7.10
2022-10-28T01:16:59.602Z,7.07
2022-10-28T01:19:58.477Z,8.13
2022-10-28T01:22:42.467Z,8.15
2022-10-28T01:25:20.750Z,7.57
2022-10-28T01:28:04.976Z,7.15
2022-10-28T01:30:28.321Z,7.10
2022-10-28T01:32:58.177Z,8.32
2022-10-28T01:35:34.503Z,8.68
2022-10-28T01:38:07.615Z,7.35
2022-10-28T01:40:48.835Z,7.97
2022-10-28T01:43:14.563Z,6.43
2022-10-28T01:45:42.101Z,5.90
2022-10-28T01:48:08.109Z,6.30
2022-10-28T01:50:43.141Z,7.65
2022-10-28T01:53:09.024Z,6.90
2022-10-28T01:55:45.100Z,6.68
2022-10-28T01:58:07.865Z,6.60
2022-10-28T02:00:28.627Z,7.65
2022-10-28T02:02:50.123Z,6.72
2022-10-28T02:05:41.523Z,6.47
2022-10-28T02:08:17.628Z,7.35
2022-10-28T02:10:45.670Z,7.82
2022-10-28T02:13:12.738Z,8.20
2022-10-28T02:15:58.737Z,10.82
2022-10-28T02:18:37.140Z,9.88
2022-10-28T02:21:14.773Z,8.32
2022-10-28T02:23:57.308Z,10.85
2022-10-28T02:26:17.102Z,9.75
2022-10-28T02:28:53.889Z,10.48
2022-10-28T02:31:23.774Z,10.48
2022-10-28T02:33:48.889Z,7.63
2022-10-28T02:36:13.781Z,7.65
2022-10-28T02:38:41.645Z,5.32
2022-10-28T02:41:20.215Z,6.88
2022-10-28T02:43:42.687Z,7.47
2022-10-28T02:46:04.052Z,5.00
2022-10-28T02:48:47.625Z,5.20
2022-10-28T02:53:36.518Z,7.40
2022-10-28T02:55:59.583Z,8.23
2022-10-28T03:00:44.677Z,7.55
2022-10-28T03:03:04.418Z,9.25
2022-10-28T03:05:24.136Z,8.88
2022-10-28T03:07:44.049Z,9.00
2022-10-28T03:10:04.697Z,10.70
2022-10-28T03:12:24.431Z,10.07
2022-10-28T03:14:44.233Z,8.82
2022-10-28T03:17:03.876Z,8.98
2022-10-28T03:19:24.310Z,8.07
2022-10-28T03:21:44.298Z,8.70
2022-10-28T03:24:04.499Z,7.72
2022-10-28T03:26:24.509Z,8.40
2022-10-28T03:28:44.133Z,7.28
2022-10-28T03:31:04.763Z,7.88
2022-10-28T03:33:24.205Z,7.97
2022-10-28T03:35:44.254Z,7.45
2022-10-28T03:38:04.544Z,7.43
2022-10-28T03:40:24.387Z,6.72
2022-10-28T03:42:44.037Z,6.90
2022-10-28T03:45:04.172Z,7.13
2022-10-28T03:47:24.360Z,7.32
2022-10-28T03:49:44.006Z,7.97
2022-10-28T03:52:03.773Z,6.88
2022-10-28T03:54:23.379Z,7.05
2022-10-28T03:56:42.949Z,6.95
2022-10-28T03:59:02.979Z,7.90
2022-10-28T04:01:22.764Z,8.23
2022-10-28T04:03:43.197Z,7.43
2022-10-28T04:06:03.355Z,7.43
2022-10-28T04:08:23.031Z,7.25
2022-10-28T04:10:47.325Z,7.45
2022-10-28T04:13:08.238Z,7.03
2022-10-28T04:15:28.171Z,6.97
2022-10-28T04:17:47.780Z,7.82
2022-10-28T04:20:08.264Z,7.53
2022-10-28T04:22:27.998Z,6.60
2022-10-28T04:24:47.757Z,7.97
2022-10-28T04:27:07.482Z,8.20
2022-10-28T04:29:27.726Z,6.95
2022-10-28T04:31:49.934Z,7.25
2022-10-28T04:34:12.231Z,6.80
2022-10-28T04:36:32.329Z,6.88
2022-10-28T04:38:52.215Z,8.80
2022-10-28T04:41:13.925Z,7.78
2022-10-28T04:43:33.958Z,7.05
2022-10-28T04:45:53.729Z,6.63
2022-10-28T04:48:13.253Z,6.80
2022-10-28T04:50:33.008Z,6.68
2022-10-28T04:52:52.970Z,7.45
2022-10-28T04:55:12.754Z,6.93
2022-10-28T04:57:32.365Z,6.20
2022-10-28T04:59:51.859Z,6.82
2022-10-28T05:02:11.570Z,6.43
2022-10-28T05:04:31.680Z,6.80
2022-10-28T05:06:51.149Z,6.55
2022-10-28T05:09:11.038Z,7.03
2022-10-28T05:11:31.172Z,7.00
2022-10-28T05:13:52.532Z,6.38
2022-10-28T05:16:12.693Z,6.38
2022-10-28T05:18:32.297Z,7.60
2022-10-28T05:20:54.170Z,6.70
2022-10-28T05:23:14.117Z,7.37
2022-10-28T05:25:33.836Z,6.78
2022-10-28T05:27:56.955Z,6.28
2022-10-28T05:30:16.586Z,8.27
2022-10-28T05:32:36.575Z,7.03
2022-10-28T05:34:56.433Z,6.45
2022-10-28T05:37:16.155Z,6.30
2022-10-28T05:39:36.346Z,5.20
2022-10-28T05:41:56.036Z,6.38
2022-10-28T05:44:15.711Z,5.38
2022-10-28T05:46:35.364Z,5.10
2022-10-28T05:48:55.301Z,5.32
2022-10-28T05:51:14.883Z,7.30
2022-10-28T05:53:35.273Z,9.35
2022-10-28T05:55:55.336Z,8.35
2022-10-28T05:58:15.838Z,7.65
2022-10-28T06:00:35.768Z,10.30
2022-10-28T06:03:08.676Z,7.28
2022-10-28T06:05:28.566Z,7.72
2022-10-28T06:07:48.617Z,8.05
2022-10-28T06:10:09.589Z,7.15
2022-10-28T06:12:27.822Z,6.38
2022-10-28T06:14:47.934Z,6.85
2022-10-28T06:17:07.577Z,7.13
2022-10-28T06:19:27.691Z,7.20
2022-10-28T06:21:47.313Z,7.18
2022-10-28T06:24:12.155Z,7.22
2022-10-28T06:26:32.656Z,7.57
2022-10-28T06:28:52.545Z,6.90
2022-10-28T06:31:12.245Z,6.43
2022-10-28T06:33:32.058Z,7.38
2022-10-28T06:35:56.192Z,7.43
2022-10-28T06:38:16.174Z,8.40
2022-10-28T06:40:35.736Z,7.80
2022-10-28T06:43:06.288Z,7.25
2022-10-28T06:45:31.041Z,8.40
2022-10-28T06:48:01.207Z,7.82
2022-10-28T06:50:20.868Z,8.60
2022-10-28T06:52:40.554Z,7.90
2022-10-28T06:55:00.542Z,8.25
2022-10-28T06:57:20.529Z,9.05
2022-10-28T06:59:41.358Z,7.25
2022-10-28T07:02:01.557Z,8.38
2022-10-28T07:04:21.443Z,7.53
2022-10-28T07:06:41.111Z,7.32
2022-10-28T07:09:00.790Z,6.68
2022-10-28T07:11:20.521Z,6.75
2022-10-28T07:13:41.730Z,5.60
2022-10-28T07:16:04.586Z,8.52
2022-10-28T07:18:26.196Z,6.75
2022-10-28T07:20:46.166Z,6.25
2022-10-28T07:23:06.263Z,8.02
2022-10-28T07:25:28.433Z,6.90
2022-10-28T07:27:48.366Z,6.55
2022-10-28T07:30:08.557Z,6.70
2022-10-28T07:32:32.411Z,7.22
2022-10-28T07:34:52.122Z,6.55
2022-10-28T07:37:12.254Z,6.90
2022-10-28T07:39:32.255Z,6.38
2022-10-28T07:41:52.129Z,6.53
2022-10-28T07:44:11.991Z,5.90
2022-10-28T07:46:31.744Z,5.88
2022-10-28T07:48:51.229Z,5.85
2022-10-28T07:51:13.096Z,6.95
2022-10-28T07:53:33.564Z,7.53
2022-10-28T07:56:14.745Z,7.70
2022-10-28T07:58:36.048Z,7.40
2022-10-28T08:00:56.354Z,6.88
2022-10-28T08:03:16.269Z,6.20
2022-10-28T08:05:36.355Z,7.82
2022-10-28T08:07:56.560Z,8.38
2022-10-28T08:10:16.826Z,6.43
2022-10-28T08:12:36.308Z,7.55
2022-10-28T08:14:56.148Z,7.82
2022-10-28T08:17:16.500Z,7.22
2022-10-28T08:19:36.913Z,6.57
2022-10-28T08:21:57.050Z,7.28
2022-10-28T08:24:16.821Z,6.95
2022-10-28T08:26:36.429Z,6.72
2022-10-28T08:28:56.154Z,6.90
2022-10-28T08:31:15.922Z,7.07
2022-10-28T08:33:37.364Z,7.75
2022-10-28T08:35:57.301Z,8.27
2022-10-28T08:38:17.096Z,7.75
2022-10-28T08:40:49.653Z,6.72
2022-10-28T08:43:40.332Z,7.43
2022-10-28T08:46:31.274Z,5.70
2022-10-28T08:48:51.528Z,7.38
2022-10-28T08:51:20.364Z,7.88
2022-10-28T08:53:46.817Z,6.32
2022-10-28T08:56:24.905Z,5.50
2022-10-28T08:58:46.504Z,6.68
2022-10-28T09:01:13.284Z,6.15
2022-10-28T09:03:39.939Z,5.80
2022-10-28T09:06:05.709Z,6.25
2022-10-28T09:08:28.453Z,6.50
2022-10-28T09:11:09.951Z,6.35
2022-10-28T09:13:38.662Z,5.70
2022-10-28T09:16:15.274Z,5.72
2022-10-28T09:18:39.281Z,5.60
2022-10-28T09:23:39.516Z,6.25
2022-10-28T09:26:32.776Z,5.10
2022-10-28T09:29:16.968Z,5.53
2022-10-28T09:31:54.632Z,6.15
2022-10-28T09:34:38.075Z,6.63
2022-10-28T09:37:21.684Z,4.80
2022-10-28T09:39:45.512Z,5.60
2022-10-28T09:42:06.216Z,5.63
2022-10-28T09:44:32.139Z,4.75
2022-10-28T09:46:56.392Z,4.68
2022-10-28T09:49:21.870Z,4.43
2022-10-28T09:51:56.939Z,4.43
2022-10-28T09:54:18.866Z,3.17
2022-10-28T09:56:39.468Z,4.45
2022-10-28T09:59:02.364Z,3.28
2022-10-28T10:03:42.893Z,3.90
2022-10-28T10:06:31.065Z,4.47
2022-10-28T10:08:51.453Z,2.75
2022-10-28T10:11:24.119Z,3.83
2022-10-28T10:13:45.220Z,3.63
2022-10-28T10:16:31.627Z,4.07
2022-10-28T10:18:57.098Z,2.15
2022-10-28T10:21:19.547Z,2.88
2022-10-28T10:26:11.074Z,3.67
2022-10-28T10:28:35.853Z,4.70
2022-10-28T10:30:58.600Z,2.83
2022-10-28T10:33:25.415Z,3.28
2022-10-28T10:35:59.141Z,3.55
2022-10-28T10:38:19.952Z,2.45
2022-10-28T10:40:52.499Z,2.63
2022-10-28T10:45:48.105Z,3.35
2022-10-28T10:48:13.522Z,3.45
2022-10-28T10:50:34.008Z,2.95
2022-10-28T10:52:57.048Z,4.13
2022-10-28T10:55:38.929Z,3.45
2022-10-28T10:57:59.815Z,2.92
2022-10-28T11:00:22.697Z,3.00
2022-10-28T11:02:46.656Z,4.20
2022-10-28T11:05:09.696Z,2.65
2022-10-28T11:09:51.671Z,3.03
2022-10-28T11:12:31.332Z,2.70
2022-10-28T11:14:59.526Z,2.67
2022-10-28T11:17:25.950Z,1.88
2022-10-28T11:19:45.780Z,3.20
2022-10-28T11:22:30.811Z,2.28
2022-10-28T11:25:26.595Z,1.55
2022-10-28T11:28:04.407Z,2.60
2022-10-28T11:31:09.855Z,2.33
2022-10-28T11:33:45.026Z,2.13
2022-10-28T11:36:31.306Z,1.60
2022-10-28T11:39:22.724Z,2.33
2022-10-28T11:42:04.144Z,1.90
2022-10-28T11:44:56.274Z,1.73
2022-10-28T11:47:40.348Z,1.30
2022-10-28T11:50:20.573Z,1.00
2022-10-28T11:53:00.263Z,1.48
2022-10-28T11:55:45.860Z,1.15
2022-10-28T11:58:23.581Z,1.42
2022-10-28T12:01:15.853Z,0.90
2022-10-28T12:03:38.655Z,1.63
2022-10-28T12:06:22.364Z,1.10
2022-10-28T12:08:58.452Z,1.52
2022-10-28T12:11:49.397Z,1.48
2022-10-28T12:14:09.479Z,1.00
2022-10-28T12:16:44.067Z,1.10
2022-10-28T12:19:29.153Z,1.00
2022-10-28T12:22:09.207Z,1.58
2022-10-28T12:24:33.561Z,1.02
2022-10-28T12:26:57.431Z,1.80
2022-10-28T12:29:36.575Z,1.30
2022-10-28T12:32:11.136Z,1.38
2022-10-28T12:34:39.425Z,1.00
2022-10-28T12:37:08.776Z,1.63
2022-10-28T12:39:39.100Z,1.60
2022-10-28T12:42:18.542Z,1.15
2022-10-28T12:44:39.768Z,1.00
2022-10-28T12:47:07.668Z,1.10
2022-10-28T12:50:09.467Z,1.25
2022-10-28T12:52:38.045Z,0.90
2022-10-28T12:57:52.365Z,1.00
2022-10-28T13:00:12.732Z,1.20
2022-10-28T13:02:40.029Z,1.27
2022-10-28T13:04:59.772Z,1.70
2022-10-28T13:08:06.867Z,2.55
2022-10-28T13:10:31.912Z,0.95
2022-10-28T13:13:13.658Z,6.13
2022-10-28T13:15:48.677Z,3.67
2022-10-28T13:18:08.609Z,2.00
2022-10-28T13:20:41.323Z,1.00
2022-10-28T13:23:23.245Z,1.10
2022-10-28T13:25:51.152Z,1.00
2022-10-28T13:28:16.193Z,0.93
2022-10-28T13:30:36.120Z,1.02
2022-10-28T13:33:01.539Z,1.27
2022-10-28T13:35:27.122Z,0.90
2022-10-28T13:37:49.288Z,0.90
2022-10-28T13:40:33.133Z,1.13
2022-10-28T13:42:53.780Z,1.60
2022-10-28T13:45:51.820Z,1.52
2022-10-28T13:48:42.703Z,1.20
2022-10-28T13:51:08.827Z,0.98
2022-10-28T13:53:28.805Z,1.63
2022-10-28T13:55:48.223Z,4.63
2022-10-28T13:58:25.884Z,5.93
2022-10-28T14:00:47.901Z,2.45
2022-10-28T14:03:20.681Z,1.42
2022-10-28T14:05:43.203Z,2.33
2022-10-28T14:08:19.711Z,1.38
2022-10-28T14:10:39.764Z,1.15
2022-10-28T14:15:37.898Z,0.90
2022-10-28T14:20:28.583Z,1.33
2022-10-28T14:22:50.415Z,1.35
2022-10-28T14:25:42.972Z,1.30
2022-10-28T14:28:03.040Z,1.65
2022-10-28T14:30:23.080Z,1.27
2022-10-28T14:32:55.483Z,1.80
2022-10-28T14:35:18.922Z,1.05
2022-10-28T14:37:53.709Z,1.65
2022-10-28T14:40:30.401Z,1.40
2022-10-28T14:43:13.895Z,1.00
2022-10-28T14:45:34.893Z,1.38
2022-10-28T14:48:04.193Z,1.33
2022-10-28T14:50:31.864Z,1.10
2022-10-28T14:52:54.156Z,1.00
2022-10-28T14:55:26.806Z,1.10
2022-10-28T14:57:46.717Z,1.02
2022-10-28T15:00:08.189Z,1.10
2022-10-28T15:02:29.242Z,1.30
2022-10-28T15:05:03.861Z,1.38
2022-10-28T15:07:23.795Z,1.13
2022-10-28T15:09:48.047Z,1.63
2022-10-28T15:12:14.775Z,1.25
2022-10-28T15:14:51.409Z,1.75
2022-10-28T15:17:21.762Z,1.25
2022-10-28T15:19:42.824Z,1.55
2022-10-28T15:22:06.655Z,1.52
2022-10-28T15:24:26.796Z,1.30
2022-10-28T15:26:53.674Z,1.63
2022-10-28T15:29:13.610Z,1.98
2022-10-28T15:31:33.130Z,2.55
2022-10-28T15:33:52.765Z,2.20
2022-10-28T15:36:18.587Z,2.97
2022-10-28T15:38:41.052Z,2.35
2022-10-28T15:41:00.815Z,2.50
2022-10-28T15:43:27.323Z,2.25
2022-10-28T15:45:47.178Z,3.70
2022-10-28T15:48:12.829Z,2.90
2022-10-28T15:50:35.771Z,4.25
2022-10-28T15:53:31.988Z,4.15
2022-10-28T15:56:12.590Z,3.47
2022-10-28T15:58:38.704Z,3.60
2022-10-28T16:00:58.635Z,2.83
2022-10-28T16:03:46.778Z,3.42
2022-10-28T16:06:27.324Z,3.65
2022-10-28T16:08:47.993Z,4.05
2022-10-28T16:11:16.918Z,3.78
2022-10-28T16:13:41.431Z,4.18
2022-10-28T16:16:15.021Z,4.28
2022-10-28T16:18:45.624Z,4.90
2022-10-28T16:21:05.872Z,4.25
2022-10-28T16:23:34.214Z,3.33
2022-10-28T16:25:54.237Z,3.75
2022-10-28T16:28:21.940Z,3.42
2022-10-28T16:30:41.885Z,4.32
2022-10-28T16:33:02.259Z,3.30
2022-10-28T16:35:23.700Z,4.63
2022-10-28T16:37:45.780Z,2.40
2022-10-28T16:40:09.238Z,3.70
2022-10-28T16:42:42.527Z,3.97
2022-10-28T16:45:02.176Z,5.47
2022-10-28T16:47:25.929Z,4.05
2022-10-28T16:49:51.218Z,3.60
2022-10-28T16:52:28.582Z,3.35
2022-10-28T16:54:49.412Z,3.60
2022-10-28T16:57:09.368Z,3.17
2022-10-28T16:59:29.544Z,3.33
2022-10-28T17:01:49.890Z,3.30
2022-10-28T17:04:10.050Z,3.95
2022-10-28T17:06:29.622Z,3.65
2022-10-28T17:09:02.354Z,3.78
2022-10-28T17:11:22.988Z,3.50
2022-10-28T17:13:42.905Z,3.67
2022-10-28T17:16:02.675Z,3.80
2022-10-28T17:18:23.196Z,4.00
2022-10-28T17:20:42.924Z,3.25
2022-10-28T17:23:04.717Z,2.80
2022-10-28T17:25:25.316Z,3.42
2022-10-28T17:27:47.709Z,3.88
2022-10-28T17:30:08.330Z,3.50
2022-10-28T17:32:28.172Z,2.90
2022-10-28T17:34:48.116Z,3.35
2022-10-28T17:37:08.057Z,3.60
2022-10-28T17:39:28.153Z,5.00
2022-10-28T17:41:48.289Z,4.22
2022-10-28T17:44:08.297Z,3.70
2022-10-28T17:46:28.058Z,3.97
2022-10-28T17:48:48.083Z,3.60
2022-10-28T17:51:07.982Z,6.90
2022-10-28T17:53:27.844Z,7.53
2022-10-28T17:56:03.347Z,5.97
2022-10-28T17:58:23.303Z,4.88
2022-10-28T18:00:44.854Z,7.65
2022-10-28T18:03:05.582Z,6.40
2022-10-28T18:05:25.658Z,6.22
2022-10-28T18:07:45.664Z,6.55
2022-10-28T18:10:07.258Z,11.20
2022-10-28T18:12:27.264Z,11.82
2022-10-28T18:14:47.460Z,10.85
2022-10-28T18:17:07.276Z,5.20
2022-10-28T18:19:27.280Z,4.00
2022-10-28T18:21:47.206Z,4.43
2022-10-28T18:24:07.579Z,3.78
2022-10-28T18:26:27.483Z,4.43
2022-10-28T18:28:48.344Z,5.03
2022-10-28T18:31:13.687Z,3.92
2022-10-28T18:33:33.934Z,5.13
2022-10-28T18:36:17.604Z,5.45
2022-10-28T18:38:37.570Z,5.00
2022-10-28T18:40:57.641Z,4.75
2022-10-28T18:43:17.411Z,3.97
2022-10-28T18:45:37.067Z,4.70
2022-10-28T18:47:57.262Z,3.58
2022-10-28T18:50:17.368Z,5.28
2022-10-28T18:52:36.958Z,6.32
2022-10-28T18:54:56.688Z,7.90
2022-10-28T18:57:16.440Z,9.25
2022-10-28T18:59:43.239Z,11.38
2022-10-28T19:02:12.246Z,12.75
2022-10-28T19:04:32.491Z,12.23
2022-10-28T19:06:52.176Z,12.27
2022-10-28T19:09:11.967Z,24.70
2022-10-28T19:11:32.759Z,14.48
2022-10-28T19:13:52.753Z,12.32
2022-10-28T19:18:38.399Z,10.95
2022-10-28T19:21:07.576Z,11.02
2022-10-28T19:23:27.765Z,10.43
2022-10-28T19:25:56.056Z,9.82
2022-10-28T19:28:15.733Z,9.02
2022-10-28T19:30:36.894Z,8.07
2022-10-28T19:32:56.784Z,7.03
2022-10-28T19:35:17.146Z,7.93
2022-10-28T19:37:36.965Z,7.57
2022-10-28T19:39:56.762Z,7.25
2022-10-28T19:42:16.809Z,8.60
2022-10-28T19:44:36.471Z,6.25
2022-10-28T19:46:56.030Z,5.82
2022-10-28T19:49:15.611Z,6.80
2022-10-28T19:51:40.383Z,6.00
2022-10-28T19:54:02.257Z,5.90
2022-10-28T19:56:22.010Z,5.50
2022-10-28T19:58:41.578Z,6.28
2022-10-28T20:01:04.929Z,6.32
2022-10-28T20:03:24.983Z,10.95
2022-10-28T20:05:45.371Z,38.53
2022-10-28T20:08:05.232Z,21.50
2022-10-28T20:10:25.005Z,8.57
2022-10-28T20:12:44.577Z,7.40
2022-10-28T20:15:05.346Z,9.13
2022-10-28T20:17:25.383Z,15.05
2022-10-28T20:19:45.031Z,12.52
2022-10-28T20:22:04.823Z,10.63
2022-10-28T20:24:25.854Z,9.75
2022-10-28T20:26:45.472Z,7.03
2022-10-28T20:29:09.076Z,9.02
2022-10-28T20:31:30.969Z,10.45
2022-10-28T20:33:56.992Z,10.10
2022-10-28T20:36:30.137Z,7.68
2022-10-28T20:38:59.018Z,9.23
2022-10-28T20:41:18.652Z,8.10
2022-10-28T20:43:38.505Z,7.93
2022-10-28T20:46:00.595Z,8.32
2022-10-28T20:48:21.501Z,7.93
2022-10-28T20:50:49.182Z,6.28
2022-10-28T20:53:08.782Z,6.63
2022-10-28T20:55:28.427Z,6.70
2022-10-28T20:57:48.043Z,5.93
2022-10-28T21:00:08.683Z,8.60
2022-10-28T21:02:28.830Z,6.32
2022-10-28T21:04:48.870Z,5.85
2022-10-28T21:07:08.605Z,6.95
2022-10-28T21:09:28.466Z,5.68
2022-10-28T21:11:48.292Z,7.53
2022-10-28T21:14:08.019Z,6.40
2022-10-28T21:16:29.152Z,5.80
2022-10-28T21:18:49.684Z,6.25
2022-10-28T21:21:10.374Z,7.32
2022-10-28T21:23:30.880Z,7.90
2022-10-28T21:25:55.212Z,8.95
2022-10-28T21:28:14.839Z,6.85
2022-10-28T21:30:34.707Z,6.53
2022-10-28T21:32:54.929Z,7.15
2022-10-28T21:35:15.574Z,6.32
2022-10-28T21:37:35.791Z,5.95
2022-10-28T21:40:00.822Z,6.05
2022-10-28T21:42:20.871Z,5.38
2022-10-28T21:44:40.615Z,5.65
2022-10-28T21:47:01.017Z,6.88
2022-10-28T21:49:21.079Z,6.60
2022-10-28T21:51:41.604Z,6.30
2022-10-28T21:54:01.309Z,6.28
2022-10-28T21:56:21.004Z,7.03
2022-10-28T21:58:41.133Z,7.85
2022-10-28T22:01:07.280Z,6.65
2022-10-28T22:03:27.077Z,7.82
2022-10-28T22:05:50.393Z,6.78
2022-10-28T22:10:29.670Z,7.15
2022-10-28T22:12:49.313Z,6.72
2022-10-28T22:15:09.300Z,6.95
2022-10-28T22:17:29.164Z,7.10
2022-10-28T22:19:51.623Z,6.30
2022-10-28T22:22:13.071Z,7.13
2022-10-28T22:24:32.683Z,6.47
2022-10-28T22:26:52.405Z,7.05
2022-10-28T22:29:12.183Z,6.75
2022-10-28T22:31:32.966Z,7.38
2022-10-28T22:33:53.206Z,11.00
2022-10-28T22:36:17.962Z,8.65
2022-10-28T22:38:38.190Z,7.38
2022-10-28T22:41:06.268Z,8.75
2022-10-28T22:43:26.335Z,6.03
2022-10-28T22:45:46.017Z,6.75
2022-10-28T22:48:05.841Z,5.55
2022-10-28T22:50:25.676Z,6.70
2022-10-28T22:52:45.220Z,7.97
2022-10-28T22:55:05.713Z,6.57
2022-10-28T22:57:25.259Z,5.90
2022-10-28T22:59:44.861Z,6.47
2022-10-28T23:02:04.672Z,7.05
2022-10-28T23:04:24.583Z,8.20
2022-10-28T23:06:44.086Z,7.20
2022-10-28T23:09:04.120Z,6.15
2022-10-28T23:11:23.800Z,6.05
2022-10-28T23:13:43.416Z,6.00
2022-10-28T23:16:11.403Z,4.75
2022-10-28T23:18:31.705Z,5.15
2022-10-28T23:20:51.335Z,5.07
2022-10-28T23:23:10.938Z,4.03
2022-10-28T23:25:30.702Z,4.18
2022-10-28T23:27:50.699Z,3.80
2022-10-28T23:30:12.434Z,4.20
2022-10-28T23:32:32.167Z,4.32
2022-10-28T23:34:51.883Z,6.38
2022-10-28T23:37:11.755Z,6.57
2022-10-28T23:39:31.497Z,5.70
2022-10-28T23:41:51.193Z,6.32
2022-10-28T23:44:10.913Z,5.65
2022-10-28T23:46:36.442Z,5.25
2022-10-28T23:48:57.163Z,6.53
2022-10-28T23:51:18.613Z,5.47
2022-10-28T23:53:38.492Z,4.93
2022-10-28T23:55:58.443Z,5.03
2022-10-28T23:58:20.094Z,5.65
